Time;durP1;ratioP1;P1;durP2;ratioP2;P2;SDS_P1;SDS_P2;PMS_P1;PMS_P2;Temp;Humidity;BMP_temperature;BMP_pressure;BME280_temperature;BME280_humidity;BME280_pressure;Samples;Min_cycle;Max_cycle;Signal;HPM_P1;HPM_P2
2023/04/14 00:09:56;;;;;;;2.53;1.40;;;7.20;1.00;;;;;;20594332;28;20540;-44
2023/04/14 00:19:57;;;;;;;4.90;1.40;;;7.10;1.00;;;;;;20599699;28;20104;-43
2023/04/14 00:29:59;;;;;;;9.18;1.77;;;7.10;1.00;;;;;;20606608;28;20150;-43
2023/04/14 00:40:00;;;;;;;6.93;1.67;;;7.00;1.00;;;;;;20624274;28;20049;-43
2023/04/14 00:50:02;;;;;;;8.55;1.75;;;6.90;1.00;;;;;;20627389;28;23024;-43
2023/04/14 01:00:04;;;;;;;5.55;1.33;;;6.80;1.00;;;;;;20626071;28;20042;-43
2023/04/14 01:10:06;;;;;;;5.22;1.10;;;6.90;1.00;;;;;;20628596;28;20092;-43
2023/04/14 01:20:19;;;;;;;2.88;1.65;;;6.80;1.00;;;;;;20635852;28;20056;-43
2023/04/14 01:30:32;;;;;;;3.75;1.85;;;6.70;1.00;;;;;;20646421;28;20049;-43
2023/04/14 01:40:34;;;;;;;6.50;0.93;;;6.50;1.00;;;;;;20628510;28;20058;-43
2023/04/14 01:50:39;;;;;;;3.83;0.98;;;6.40;1.00;;;;;;20623615;28;20093;-41
2023/04/14 02:00:42;;;;;;;3.42;1.23;;;6.40;1.00;;;;;;20620657;28;20045;-41
2023/04/14 02:10:46;;;;;;;3.65;1.23;;;6.30;1.00;;;;;;20633488;28;20667;-40
2023/04/14 02:20:48;;;;;;;3.67;1.92;;;6.20;1.00;;;;;;20607877;28;21555;-41
2023/04/14 02:30:53;;;;;;;4.78;1.45;;;6.20;1.00;;;;;;20614352;28;20053;-41
2023/04/14 02:40:55;;;;;;;4.75;2.08;;;6.10;1.00;;;;;;20640076;28;20148;-41
2023/04/14 02:50:58;;;;;;;7.65;2.97;;;6.10;1.00;;;;;;20642107;28;20034;-41
2023/04/14 03:01:00;;;;;;;4.63;1.17;;;6.00;1.00;;;;;;20610827;28;20430;-40
2023/04/14 03:11:02;;;;;;;4.82;2.22;;;5.90;1.00;;;;;;20615955;28;21301;-41
2023/04/14 03:21:04;;;;;;;7.18;2.40;;;6.00;1.00;;;;;;20628542;28;20298;-41
2023/04/14 03:31:08;;;;;;;3.75;1.92;;;5.90;1.00;;;;;;20647605;28;20077;-40
2023/04/14 03:41:10;;;;;;;4.18;2.90;;;5.80;1.00;;;;;;20641104;28;22207;-41
2023/04/14 03:51:14;;;;;;;17.83;2.75;;;5.80;1.00;;;;;;20609223;28;20041;-41
2023/04/14 04:01:18;;;;;;;5.05;2.38;;;5.80;1.00;;;;;;20616124;28;20064;-41
2023/04/14 04:11:20;;;;;;;5.40;1.88;;;5.90;1.00;;;;;;20606823;28;20144;-43
2023/04/14 04:21:26;;;;;;;6.03;2.60;;;5.80;1.00;;;;;;20638113;28;20543;-41
2023/04/14 04:31:27;;;;;;;4.25;2.13;;;5.60;1.00;;;;;;20643985;28;20038;-41
2023/04/14 04:41:29;;;;;;;7.43;2.85;;;5.50;1.00;;;;;;20634043;28;20045;-41
2023/04/14 04:51:31;;;;;;;9.68;2.72;;;5.30;1.00;;;;;;20621236;28;20728;-41
2023/04/14 05:01:32;;;;;;;6.22;2.70;;;5.20;1.00;;;;;;20636220;28;20054;-43
2023/04/14 05:11:33;;;;;;;5.13;1.95;;;5.10;1.00;;;;;;20617691;28;20667;-43
2023/04/14 05:21:34;;;;;;;9.05;2.67;;;5.20;1.00;;;;;;20628439;28;20061;-43
2023/04/14 05:31:35;;;;;;;17.15;2.13;;;5.30;1.00;;;;;;20628276;28;20042;-43
2023/04/14 05:41:36;;;;;;;4.35;2.13;;;5.40;1.00;;;;;;20628641;28;20588;-43
2023/04/14 05:51:37;;;;;;;4.80;1.30;;;5.60;1.00;;;;;;20626600;28;21232;-43
2023/04/14 06:01:38;;;;;;;6.65;2.20;;;5.90;1.00;;;;;;20645453;28;20050;-41
2023/04/14 06:11:40;;;;;;;12.35;2.08;;;6.10;1.00;;;;;;20647694;28;20093;-41
2023/04/14 06:21:41;;;;;;;4.55;2.38;;;6.20;1.00;;;;;;20638842;28;20045;-44
2023/04/14 06:31:42;;;;;;;5.90;2.17;;;6.50;1.00;;;;;;20653688;28;20049;-41
2023/04/14 06:41:43;;;;;;;20.80;2.85;;;6.70;1.00;;;;;;20649847;28;20244;-41
2023/04/14 06:51:44;;;;;;;6.18;1.83;;;6.90;1.00;;;;;;20641734;28;20042;-43
2023/04/14 07:01:45;;;;;;;3.67;2.08;;;7.20;1.00;;;;;;20653642;28;20058;-43
2023/04/14 07:11:46;;;;;;;5.45;1.70;;;7.50;1.00;;;;;;20651602;28;20033;-42
2023/04/14 07:21:48;;;;;;;5.35;1.70;;;7.90;1.00;;;;;;20656726;28;20058;-42
2023/04/14 07:31:49;;;;;;;3.47;1.45;;;8.20;1.00;;;;;;20645423;28;20045;-42
2023/04/14 07:41:50;;;;;;;2.55;1.20;;;8.40;1.00;;;;;;20650330;28;20059;-44
2023/04/14 07:51:51;;;;;;;2.60;0.90;;;8.70;1.00;;;;;;20646457;28;20674;-44
2023/04/14 08:01:52;;;;;;;8.18;2.38;;;9.20;1.00;;;;;;20637256;28;20089;-45
2023/04/14 08:11:53;;;;;;;2.80;0.68;;;9.50;1.00;;;;;;20625531;28;20516;-44
2023/04/14 08:21:54;;;;;;;2.22;0.60;;;10.20;1.00;;;;;;20630302;28;20783;-44
2023/04/14 08:31:55;;;;;;;1.67;0.57;;;10.30;1.00;;;;;;20634601;28;20038;-44
2023/04/14 08:41:57;;;;;;;4.78;1.02;;;10.90;1.00;;;;;;20635426;28;20054;-45
2023/04/14 08:52:02;;;;;;;4.60;1.85;;;11.00;1.00;;;;;;20641163;28;20042;-44
2023/04/14 09:02:05;;;;;;;2.22;0.90;;;11.40;1.00;;;;;;20621231;28;20050;-44
2023/04/14 09:12:07;;;;;;;1.02;0.32;;;11.60;1.00;;;;;;20637612;28;20047;-43
2023/04/14 09:22:09;;;;;;;10.65;0.98;;;11.60;1.00;;;;;;20663842;28;20049;-44
2023/04/14 09:32:11;;;;;;;3.63;1.13;;;12.00;1.00;;;;;;20625548;28;20513;-43
2023/04/14 09:42:12;;;;;;;2.20;1.00;;;12.30;1.00;;;;;;20598170;28;20042;-43
2023/04/14 09:52:13;;;;;;;1.42;0.40;;;12.10;1.00;;;;;;20668835;28;20038;-44
2023/04/14 10:02:15;;;;;;;2.03;0.77;;;12.20;1.00;;;;;;20665123;28;20057;-44
2023/04/14 10:12:17;;;;;;;3.25;0.80;;;12.80;1.00;;;;;;20661342;28;20138;-44
2023/04/14 10:22:19;;;;;;;12.40;1.05;;;12.80;1.00;;;;;;20616007;28;20038;-42
2023/04/14 10:32:23;;;;;;;2.90;0.55;;;13.30;1.00;;;;;;20642292;28;20042;-42
2023/04/14 10:42:25;;;;;;;4.97;1.15;;;13.70;1.00;;;;;;20659508;28;20061;-42
2023/04/14 10:52:28;;;;;;;2.05;0.60;;;14.30;1.00;;;;;;20679223;28;20046;-42
2023/04/14 11:02:31;;;;;;;2.88;0.40;;;14.80;1.00;;;;;;20654623;28;20207;-42
2023/04/14 11:12:42;;;;;;;2.97;0.60;;;14.50;1.00;;;;;;20661463;28;20033;-42
2023/04/14 11:22:45;;;;;;;3.55;1.13;;;14.90;1.00;;;;;;20637058;28;20365;-42
2023/04/14 11:32:49;;;;;;;2.33;0.88;;;14.90;1.00;;;;;;20645438;28;20448;-42
2023/04/14 11:42:52;;;;;;;0.75;0.30;;;14.70;1.00;;;;;;20675653;28;20056;-42
2023/04/14 11:52:59;;;;;;;1.08;0.43;;;15.10;1.00;;;;;;20679060;28;20045;-42
2023/04/14 12:03:02;;;;;;;;;;;15.10;1.00;;;;;;20666169;28;20442;-41
2023/04/14 12:13:09;;;;;;;4.20;0.98;;;16.40;1.00;;;;;;20602166;28;19925;-41
2023/04/14 12:23:10;;;;;;;5.23;0.47;;;15.40;1.00;;;;;;20610722;28;20050;-41
2023/04/14 12:33:11;;;;;;;0.95;0.40;;;14.40;1.00;;;;;;20616202;28;20068;-41
2023/04/14 12:43:13;;;;;;;1.40;0.68;;;14.60;1.00;;;;;;20624368;28;20050;-41
2023/04/14 12:53:25;;;;;;;2.00;0.70;;;14.70;1.00;;;;;;20631549;28;21100;-41
2023/04/14 13:03:46;;;;;;;1.33;0.85;;;14.50;1.00;;;;;;20622632;28;21184;-43
2023/04/14 13:13:47;;;;;;;1.17;0.35;;;16.20;1.00;;;;;;20579553;28;21550;-42
2023/04/14 13:23:48;;;;;;;3.17;0.82;;;16.60;1.00;;;;;;20610972;28;20402;-43
2023/04/14 13:33:50;;;;;;;1.27;0.40;;;16.90;1.00;;;;;;20633782;28;20069;-43
2023/04/14 13:43:51;;;;;;;1.60;0.63;;;16.80;1.00;;;;;;20601902;28;20391;-41
2023/04/14 13:53:55;;;;;;;2.00;0.57;;;18.00;1.00;;;;;;20591466;28;20049;-41
2023/04/14 14:03:56;;;;;;;1.48;0.52;;;16.40;1.00;;;;;;20618005;28;20137;-41
2023/04/14 14:13:57;;;;;;;4.63;0.65;;;17.10;1.00;;;;;;20615497;28;20041;-40
2023/04/14 14:23:58;;;;;;;0.85;0.30;;;17.20;1.00;;;;;;20614583;28;20042;-41
2023/04/14 14:33:59;;;;;;;1.08;0.60;;;16.60;1.00;;;;;;20660008;28;20058;-41
2023/04/14 14:44:00;;;;;;;0.80;0.30;;;17.10;1.00;;;;;;20636192;28;20218;-41
2023/04/14 14:54:01;;;;;;;1.85;0.57;;;16.90;1.00;;;;;;20653174;28;20045;-41
2023/04/14 15:04:04;;;;;;;1.55;0.43;;;16.90;1.00;;;;;;20635530;28;20383;-41
2023/04/14 15:14:05;;;;;;;1.38;0.30;;;15.70;1.00;;;;;;20628056;28;20046;-41
2023/04/14 15:24:06;;;;;;;1.45;0.32;;;15.20;1.00;;;;;;20634803;28;20050;-42
2023/04/14 15:34:08;;;;;;;7.10;0.35;;;15.20;1.00;;;;;;20636097;28;20033;-41
2023/04/14 15:44:09;;;;;;;0.98;0.38;;;15.20;1.00;;;;;;20623037;28;20369;-41
2023/04/14 15:54:10;;;;;;;1.65;0.88;;;15.60;1.00;;;;;;20629315;28;20517;-39
2023/04/14 16:04:11;;;;;;;1.20;0.40;;;15.50;1.00;;;;;;20613146;28;20590;-38
2023/04/14 16:14:12;;;;;;;2.35;0.52;;;14.80;1.00;;;;;;20609380;28;20046;-39
2023/04/14 16:24:14;;;;;;;0.95;0.75;;;14.20;1.00;;;;;;20601529;28;20049;-39
2023/04/14 16:34:17;;;;;;;1.00;0.30;;;13.80;1.00;;;;;;20628694;28;20870;-39
2023/04/14 16:44:18;;;;;;;0.73;0.20;;;14.00;1.00;;;;;;20619460;28;20061;-39
2023/04/14 16:54:19;;;;;;;2.40;0.20;;;14.20;1.00;;;;;;20639027;28;20098;-39
2023/04/14 17:04:20;;;;;;;0.63;0.30;;;14.10;1.00;;;;;;20641871;28;20049;-39
2023/04/14 17:14:22;;;;;;;0.57;0.20;;;14.10;1.00;;;;;;20643704;28;20049;-40
2023/04/14 17:24:23;;;;;;;0.65;0.28;;;14.00;1.00;;;;;;20630908;28;20080;-39
2023/04/14 17:34:24;;;;;;;0.80;0.20;;;14.20;1.00;;;;;;20633404;28;20486;-39
2023/04/14 17:44:33;;;;;;;1.45;0.55;;;14.40;1.00;;;;;;20637528;28;20057;-39
2023/04/14 17:54:35;;;;;;;1.10;0.40;;;14.40;1.00;;;;;;20626629;28;20065;-39
2023/04/14 18:04:37;;;;;;;1.58;0.77;;;14.20;1.00;;;;;;20650731;28;20442;-39
2023/04/14 18:14:38;;;;;;;6.70;1.20;;;13.70;1.00;;;;;;20659353;28;20037;-39
2023/04/14 18:24:39;;;;;;;0.40;0.20;;;13.40;1.00;;;;;;20658638;28;20056;-38
2023/04/14 18:34:40;;;;;;;0.80;0.20;;;13.20;1.00;;;;;;20654178;28;20233;-38
2023/04/14 18:44:41;;;;;;;0.30;0.10;;;13.10;1.00;;;;;;20637244;28;20100;-40
2023/04/14 18:54:43;;;;;;;1.40;0.40;;;13.10;1.00;;;;;;20599458;28;20045;-39
2023/04/14 19:04:44;;;;;;;2.67;0.77;;;12.90;1.00;;;;;;20637100;28;21573;-39
2023/04/14 19:14:45;;;;;;;1.13;0.40;;;12.70;1.00;;;;;;20642538;28;20176;-39
2023/04/14 19:24:48;;;;;;;1.30;0.60;;;12.50;1.00;;;;;;20655523;28;20426;-39
2023/04/14 19:34:50;;;;;;;1.70;0.63;;;12.10;1.00;;;;;;20639179;28;20050;-39
2023/04/14 19:44:52;;;;;;;2.13;0.50;;;12.00;1.00;;;;;;20620529;28;20061;-39
2023/04/14 19:54:53;;;;;;;1.15;0.40;;;11.80;1.00;;;;;;20617470;28;20521;-39
2023/04/14 20:04:55;;;;;;;3.85;0.70;;;11.70;1.00;;;;;;20650237;28;20424;-39
2023/04/14 20:14:56;;;;;;;5.25;2.28;;;11.50;1.00;;;;;;20645880;28;20772;-39
2023/04/14 20:24:58;;;;;;;2.33;0.90;;;11.60;1.00;;;;;;20668965;28;20057;-39
2023/04/14 20:34:59;;;;;;;2.45;0.80;;;11.60;1.00;;;;;;20637510;28;20115;-38
2023/04/14 20:45:00;;;;;;;2.47;0.77;;;11.50;1.00;;;;;;20609997;28;20038;-39
2023/04/14 20:55:02;;;;;;;3.40;1.55;;;11.50;1.00;;;;;;20604306;28;20430;-38
2023/04/14 21:05:04;;;;;;;4.10;1.10;;;11.50;1.00;;;;;;20617596;28;20966;-39
2023/04/14 21:15:06;;;;;;;3.90;1.08;;;11.60;1.00;;;;;;20629229;28;20038;-39
2023/04/14 21:25:07;;;;;;;3.85;1.67;;;11.60;1.00;;;;;;20622798;28;20208;-39
2023/04/14 21:35:08;;;;;;;2.17;1.13;;;11.40;1.00;;;;;;20608611;28;20068;-39
2023/04/14 21:45:09;;;;;;;2.50;0.90;;;11.30;1.00;;;;;;20616249;28;20054;-39
2023/04/14 21:55:11;;;;;;;4.07;1.33;;;11.00;1.00;;;;;;20623990;28;20042;-38
2023/04/14 22:05:15;;;;;;;3.05;1.50;;;10.80;1.00;;;;;;20653013;28;20442;-39
2023/04/14 22:15:15;;;;;;;14.82;1.92;;;10.60;1.00;;;;;;20628180;28;20565;-39
2023/04/14 22:25:17;;;;;;;4.68;1.55;;;10.50;1.00;;;;;;20623443;28;20517;-39
2023/04/14 22:35:18;;;;;;;9.63;2.40;;;10.30;1.00;;;;;;20620529;28;20186;-41
2023/04/14 22:45:19;;;;;;;3.97;1.52;;;10.20;1.00;;;;;;20618417;28;20078;-38
2023/04/14 22:55:20;;;;;;;5.90;2.08;;;10.00;1.00;;;;;;20639372;28;20045;-39
2023/04/14 23:05:21;;;;;;;4.20;2.15;;;9.90;1.00;;;;;;20637233;28;20058;-39
2023/04/14 23:15:22;;;;;;;4.50;2.10;;;9.80;1.00;;;;;;20656859;28;20413;-40
2023/04/14 23:25:23;;;;;;;7.65;2.28;;;9.70;1.00;;;;;;20627699;28;20069;-39
2023/04/14 23:35:24;;;;;;;8.45;2.00;;;9.70;1.00;;;;;;20620073;28;20044;-39
2023/04/14 23:45:26;;;;;;;3.53;1.73;;;9.60;1.00;;;;;;20638560;28;20061;-39
2023/04/14 23:55:27;;;;;;;5.07;1.75;;;9.60;1.00;;;;;;20618272;28;20033;-40
